Friday, November 28, 2014
21:27 UTC
  |  Log In   |  Register Free
Airport Search:

Powell Municipal Airport
(KPOY)

Powell Municipal Airport Diagram
No Airport Diagram Available

FAA data valid effective November 13, 2014 - January 08, 2015 (unless otherwise noted).

 
 
 
 
 
 
 
 
 
 
 
 
 
 

Current Aviation Weather for Powell Municipal Airport (KPOY)

The most recent METAR observation for KPOY was updated at: 2113
METAR Summary (Translated METAR)
KPOY
282055Z AUTO 26031G42KT 10SM CLR 10/M01 A2962 RMK AO2
KU68
282055Z AUTO 23010KT 10SM CLR 10/M01 A2967 RMK AO2 PWINO
(15 nm NE from KPOY)
KCOD
282055Z 24027G45KT 10SM CLR 12/M07 A2961 RMK AO1 57007
(23.1 nm SW from KPOY)
TAF Summary (Translated TAF)
KCOD
281720Z 2818/2918 23025G40KT P6SM FEW250 WS012/26060KT FM282200 24030G50KT P6SM FEW250 WS018/26060KT FM291000 23015G25KT P6SM SKC WS015/25040KT AMD LTD TO CLD VIS AND WIND
  Airport Weather Conditions for KPOY

 Current Weather at POY
50° F
Fair and Windy
West winds at 43.7 mph
POY NOAA Radar

Pressure: 29.61 in
Humidity: 43%
Wind: from the West at 43.7 gusting to 52.9 MPH (38 gusting to 46 KT)
Dew Point: 28.4°F
Visibility: 10.00 mi


Airport Weather Forecast for KPOY

Translated METAR and TAF for KCOD
Translated METAR for KCOD (2122 UTC 28 November 2014)
found at http://aviationweather.gov/adds/metars/
 
METAR text: KCOD 282115Z 23031G39KT 10SM CLR 11/M06 A2960 RMK AO1
Conditions at: KCOD (CODY , WY, US) observed 2115 UTC 28 November 2014
Temperature: 11.0°C (52°F)
Dewpoint: -6.0°C (21°F) [RH = 30%]
Pressure (altimeter): 29.60 inches Hg (1002.5 mb)
Winds: from the SW (230 degrees) at 36 MPH (31 knots; 16.1 m/s)
gusting to 45 MPH (39 knots; 20.3 m/s)
Visibility: 10 or more miles (16+ km)
Ceiling: at least 12,000 feet AGL
Clouds: sky clear below 12,000 feet AGL
Weather: no significant weather observed at this time
Translated TAF for KCOD
Forecast for: KCOD (CODY , WY, US)
TAF Text: KCOD 281720Z 2818/2918 23025G40KT P6SM FEW250 WS012/26060KT
Forecast period: 1800 to 2200 UTC 28 November 2014
Forecast type: FROM: standard forecast or significant change
Winds: from the SW (230 degrees) at 29 MPH (25 knots; 13.0 m/s)
gusting to 46 MPH (40 knots; 20.8 m/s)
Visibility: 6 or more miles (10+ km)
Clouds: few clouds at 25000 feet AGL
Wind shear: at 1200 feet ( 366 m) AGL, from the W (260 degrees) at 69 MPH (60 knots; 31.2 m/s)
Weather: no significant weather forecast for this period
TAF Text: FM282200 24030G50KT P6SM FEW250 WS018/26060KT
Forecast period: 2200 UTC 28 November 2014 to 1000 UTC 29 November 2014
Forecast type: FROM: standard forecast or significant change
Winds: from the WSW (240 degrees) at 34 MPH (30 knots; 15.6 m/s)
gusting to 57 MPH (50 knots; 26.0 m/s)
Visibility: 6 or more miles (10+ km)
Clouds: few clouds at 25000 feet AGL
Wind shear: at 1800 feet ( 549 m) AGL, from the W (260 degrees) at 69 MPH (60 knots; 31.2 m/s)
Weather: no significant weather forecast for this period
TAF Text: FM291000 23015G25KT P6SM SKC WS015/25040KT AMD LTD TO CLD VIS AND WIND
Forecast period: 1000 to 1800 UTC 29 November 2014
Forecast type: FROM: standard forecast or significant change
Winds: from the SW (230 degrees) at 17 MPH (15 knots; 7.8 m/s)
gusting to 29 MPH (25 knots; 13.0 m/s)
Visibility: 6 or more miles (10+ km)
Clouds: clear skies
Wind shear: at 1500 feet ( 457 m) AGL, from the WSW (250 degrees) at 46 MPH (40 knots; 20.8 m/s)
Weather: no significant weather forecast for this period

Find All Airport Services Find A Hotel Find A Rental Car Find A Golf Course Find A Restaurant $100 Hamburger



FBO's on the Field
FBO Company Facility Photos Services Transportation Aviation Fuel Prices: Prices include tax
Catering Weather Repair Courtesy Rental Type 100LL JetA JetA+ MOGAS 8087
 
City of Powell

This FBO has not yet been rated
FS:Independent
Last Updated: Nov-13
Login to update fuel prices
SS:
Contact City of PowellMore FBO Information
 
Add another FBO Facility Photos Catering Weather Repair Courtesy Rental Type 100LL JetA JetA+ MOGAS 8087
Services Transportation Aviation Fuel Prices: Prices include tax


model-print
model-print
model-print
model-print